sensor_id;sensor_type;location;lat;lon;timestamp;temperature;humidity
31733;DHT22;18312;51.486;7.144;2023-06-22T00:00:40;21.00;89.90
31733;DHT22;18312;51.486;7.144;2023-06-22T00:03:08;21.00;90.20
31733;DHT22;18312;51.486;7.144;2023-06-22T00:05:34;21.00;90.40
31733;DHT22;18312;51.486;7.144;2023-06-22T00:08:03;21.00;90.50
31733;DHT22;18312;51.486;7.144;2023-06-22T00:10:32;20.90;90.70
31733;DHT22;18312;51.486;7.144;2023-06-22T00:12:58;20.90;90.90
31733;DHT22;18312;51.486;7.144;2023-06-22T00:15:27;20.90;91.20
31733;DHT22;18312;51.486;7.144;2023-06-22T00:17:54;20.90;91.30
31733;DHT22;18312;51.486;7.144;2023-06-22T00:20:22;20.90;91.50
31733;DHT22;18312;51.486;7.144;2023-06-22T00:22:53;20.90;91.70
31733;DHT22;18312;51.486;7.144;2023-06-22T00:25:20;20.90;91.90
31733;DHT22;18312;51.486;7.144;2023-06-22T00:27:47;21.00;91.90
31733;DHT22;18312;51.486;7.144;2023-06-22T00:30:14;20.90;92.00
31733;DHT22;18312;51.486;7.144;2023-06-22T00:32:44;20.90;92.10
31733;DHT22;18312;51.486;7.144;2023-06-22T00:35:11;20.90;92.30
31733;DHT22;18312;51.486;7.144;2023-06-22T00:37:39;20.90;92.50
31733;DHT22;18312;51.486;7.144;2023-06-22T00:40:10;20.90;92.60
31733;DHT22;18312;51.486;7.144;2023-06-22T00:42:37;21.00;92.60
31733;DHT22;18312;51.486;7.144;2023-06-22T00:45:06;20.90;92.60
31733;DHT22;18312;51.486;7.144;2023-06-22T00:47:34;20.90;92.70
31733;DHT22;18312;51.486;7.144;2023-06-22T00:50:06;20.90;93.00
31733;DHT22;18312;51.486;7.144;2023-06-22T00:52:34;20.80;93.20
31733;DHT22;18312;51.486;7.144;2023-06-22T00:55:02;20.80;93.40
31733;DHT22;18312;51.486;7.144;2023-06-22T00:57:29;20.80;93.80
31733;DHT22;18312;51.486;7.144;2023-06-22T00:59:56;20.70;94.00
31733;DHT22;18312;51.486;7.144;2023-06-22T01:02:23;20.60;94.40
31733;DHT22;18312;51.486;7.144;2023-06-22T01:04:50;20.60;94.50
31733;DHT22;18312;51.486;7.144;2023-06-22T01:07:24;20.60;94.60
31733;DHT22;18312;51.486;7.144;2023-06-22T01:09:59;20.60;94.90
31733;DHT22;18312;51.486;7.144;2023-06-22T01:12:32;20.60;95.20
31733;DHT22;18312;51.486;7.144;2023-06-22T01:15:04;20.50;95.40
31733;DHT22;18312;51.486;7.144;2023-06-22T01:17:35;20.40;95.70
31733;DHT22;18312;51.486;7.144;2023-06-22T01:20:04;20.30;95.80
31733;DHT22;18312;51.486;7.144;2023-06-22T01:25:38;20.10;96.90
31733;DHT22;18312;51.486;7.144;2023-06-22T01:28:20;20.00;97.20
31733;DHT22;18312;51.486;7.144;2023-06-22T01:30:51;20.00;97.40
31733;DHT22;18312;51.486;7.144;2023-06-22T01:33:33;20.00;97.40
31733;DHT22;18312;51.486;7.144;2023-06-22T01:36:01;20.00;97.60
31733;DHT22;18312;51.486;7.144;2023-06-22T01:38:30;20.10;97.60
31733;DHT22;18312;51.486;7.144;2023-06-22T01:40:57;20.00;98.10
31733;DHT22;18312;51.486;7.144;2023-06-22T01:43:25;20.00;98.20
31733;DHT22;18312;51.486;7.144;2023-06-22T01:45:55;20.00;98.00
31733;DHT22;18312;51.486;7.144;2023-06-22T01:48:22;20.10;98.30
31733;DHT22;18312;51.486;7.144;2023-06-22T01:50:51;20.10;98.10
31733;DHT22;18312;51.486;7.144;2023-06-22T01:53:18;20.10;98.30
31733;DHT22;18312;51.486;7.144;2023-06-22T01:55:46;20.10;98.50
31733;DHT22;18312;51.486;7.144;2023-06-22T01:58:13;20.10;98.60
31733;DHT22;18312;51.486;7.144;2023-06-22T02:00:48;20.10;98.80
31733;DHT22;18312;51.486;7.144;2023-06-22T02:03:21;20.10;98.90
31733;DHT22;18312;51.486;7.144;2023-06-22T02:05:51;20.10;99.20
31733;DHT22;18312;51.486;7.144;2023-06-22T02:08:20;20.00;99.30
31733;DHT22;18312;51.486;7.144;2023-06-22T02:10:51;20.00;99.50
31733;DHT22;18312;51.486;7.144;2023-06-22T02:13:19;20.10;99.60
31733;DHT22;18312;51.486;7.144;2023-06-22T02:15:46;20.20;99.50
31733;DHT22;18312;51.486;7.144;2023-06-22T02:18:13;20.30;99.80
31733;DHT22;18312;51.486;7.144;2023-06-22T02:20:42;20.30;99.70
31733;DHT22;18312;51.486;7.144;2023-06-22T02:23:09;20.30;99.80
31733;DHT22;18312;51.486;7.144;2023-06-22T02:25:36;20.30;99.90
31733;DHT22;18312;51.486;7.144;2023-06-22T02:28:03;20.20;99.90
31733;DHT22;18312;51.486;7.144;2023-06-22T02:30:31;20.20;99.90
31733;DHT22;18312;51.486;7.144;2023-06-22T02:32:58;20.20;99.90
31733;DHT22;18312;51.486;7.144;2023-06-22T02:35:25;20.10;99.90
31733;DHT22;18312;51.486;7.144;2023-06-22T02:37:58;20.10;99.90
31733;DHT22;18312;51.486;7.144;2023-06-22T02:40:25;20.10;99.90
31733;DHT22;18312;51.486;7.144;2023-06-22T02:42:52;20.10;99.90
31733;DHT22;18312;51.486;7.144;2023-06-22T02:45:18;20.10;99.90
31733;DHT22;18312;51.486;7.144;2023-06-22T02:47:45;20.00;99.90
31733;DHT22;18312;51.486;7.144;2023-06-22T02:50:13;19.90;99.90
31733;DHT22;18312;51.486;7.144;2023-06-22T02:52:40;19.90;99.90
31733;DHT22;18312;51.486;7.144;2023-06-22T02:55:08;19.80;99.90
31733;DHT22;18312;51.486;7.144;2023-06-22T02:57:35;19.70;99.90
31733;DHT22;18312;51.486;7.144;2023-06-22T03:00:04;19.70;99.90
31733;DHT22;18312;51.486;7.144;2023-06-22T03:02:42;19.60;99.90
31733;DHT22;18312;51.486;7.144;2023-06-22T03:05:08;19.60;99.90
31733;DHT22;18312;51.486;7.144;2023-06-22T03:07:39;19.60;99.90
31733;DHT22;18312;51.486;7.144;2023-06-22T03:10:09;19.60;99.90
31733;DHT22;18312;51.486;7.144;2023-06-22T03:12:36;19.50;99.90
31733;DHT22;18312;51.486;7.144;2023-06-22T03:15:05;19.50;99.90
31733;DHT22;18312;51.486;7.144;2023-06-22T03:17:32;19.50;99.90
31733;DHT22;18312;51.486;7.144;2023-06-22T03:19:58;19.40;99.90
31733;DHT22;18312;51.486;7.144;2023-06-22T03:22:25;19.40;99.90
31733;DHT22;18312;51.486;7.144;2023-06-22T03:24:52;19.40;99.90
31733;DHT22;18312;51.486;7.144;2023-06-22T03:27:20;19.30;99.90
31733;DHT22;18312;51.486;7.144;2023-06-22T03:29:47;19.30;99.90
31733;DHT22;18312;51.486;7.144;2023-06-22T03:32:14;19.20;99.90
31733;DHT22;18312;51.486;7.144;2023-06-22T03:34:41;19.10;99.90
31733;DHT22;18312;51.486;7.144;2023-06-22T03:37:12;19.10;99.90
31733;DHT22;18312;51.486;7.144;2023-06-22T03:39:39;19.00;99.90
31733;DHT22;18312;51.486;7.144;2023-06-22T03:42:06;19.00;99.90
31733;DHT22;18312;51.486;7.144;2023-06-22T03:44:35;18.90;99.90
31733;DHT22;18312;51.486;7.144;2023-06-22T03:47:03;18.90;99.90
31733;DHT22;18312;51.486;7.144;2023-06-22T03:49:32;18.90;99.90
31733;DHT22;18312;51.486;7.144;2023-06-22T03:51:59;18.80;99.90
31733;DHT22;18312;51.486;7.144;2023-06-22T03:54:27;18.80;99.90
31733;DHT22;18312;51.486;7.144;2023-06-22T03:56:54;18.80;99.90
31733;DHT22;18312;51.486;7.144;2023-06-22T03:59:21;19.00;99.90
31733;DHT22;18312;51.486;7.144;2023-06-22T04:01:49;18.90;99.90
31733;DHT22;18312;51.486;7.144;2023-06-22T04:04:16;19.00;99.90
31733;DHT22;18312;51.486;7.144;2023-06-22T04:06:43;19.00;99.90
31733;DHT22;18312;51.486;7.144;2023-06-22T04:09:10;19.10;99.90
31733;DHT22;18312;51.486;7.144;2023-06-22T04:11:37;19.20;99.90
31733;DHT22;18312;51.486;7.144;2023-06-22T04:14:04;19.30;99.90
31733;DHT22;18312;51.486;7.144;2023-06-22T04:16:31;19.30;99.90
31733;DHT22;18312;51.486;7.144;2023-06-22T04:18:59;19.40;99.90
31733;DHT22;18312;51.486;7.144;2023-06-22T04:21:26;19.40;99.90
31733;DHT22;18312;51.486;7.144;2023-06-22T04:23:52;19.50;99.90
31733;DHT22;18312;51.486;7.144;2023-06-22T04:26:19;19.40;99.90
31733;DHT22;18312;51.486;7.144;2023-06-22T04:28:46;19.50;99.90
31733;DHT22;18312;51.486;7.144;2023-06-22T04:31:17;19.50;99.90
31733;DHT22;18312;51.486;7.144;2023-06-22T04:33:45;19.60;99.90
31733;DHT22;18312;51.486;7.144;2023-06-22T04:36:13;19.60;99.90
31733;DHT22;18312;51.486;7.144;2023-06-22T04:38:40;19.60;99.90
31733;DHT22;18312;51.486;7.144;2023-06-22T04:41:07;19.60;99.90
31733;DHT22;18312;51.486;7.144;2023-06-22T04:43:39;19.70;99.90
31733;DHT22;18312;51.486;7.144;2023-06-22T04:46:06;19.70;99.90
31733;DHT22;18312;51.486;7.144;2023-06-22T04:48:33;19.60;99.90
31733;DHT22;18312;51.486;7.144;2023-06-22T04:51:00;19.60;99.90
31733;DHT22;18312;51.486;7.144;2023-06-22T04:53:30;19.60;99.90
31733;DHT22;18312;51.486;7.144;2023-06-22T04:55:57;19.60;99.90
31733;DHT22;18312;51.486;7.144;2023-06-22T04:58:24;19.60;99.90
31733;DHT22;18312;51.486;7.144;2023-06-22T05:00:52;19.70;99.90
31733;DHT22;18312;51.486;7.144;2023-06-22T05:03:22;19.70;99.90
31733;DHT22;18312;51.486;7.144;2023-06-22T05:05:51;19.70;99.90
31733;DHT22;18312;51.486;7.144;2023-06-22T05:08:18;19.80;99.90
31733;DHT22;18312;51.486;7.144;2023-06-22T05:10:46;19.80;99.90
31733;DHT22;18312;51.486;7.144;2023-06-22T05:13:13;19.90;99.90
31733;DHT22;18312;51.486;7.144;2023-06-22T05:15:40;19.80;99.90
31733;DHT22;18312;51.486;7.144;2023-06-22T05:18:06;19.80;99.90
31733;DHT22;18312;51.486;7.144;2023-06-22T05:20:33;19.80;99.90
31733;DHT22;18312;51.486;7.144;2023-06-22T05:23:01;19.80;99.90
31733;DHT22;18312;51.486;7.144;2023-06-22T05:25:28;19.80;99.90
31733;DHT22;18312;51.486;7.144;2023-06-22T05:27:59;19.80;99.90
31733;DHT22;18312;51.486;7.144;2023-06-22T05:30:27;19.80;99.90
31733;DHT22;18312;51.486;7.144;2023-06-22T05:32:53;19.80;99.90
31733;DHT22;18312;51.486;7.144;2023-06-22T05:35:20;19.90;99.90
31733;DHT22;18312;51.486;7.144;2023-06-22T05:37:47;19.90;99.90
31733;DHT22;18312;51.486;7.144;2023-06-22T05:40:14;19.90;99.90
31733;DHT22;18312;51.486;7.144;2023-06-22T05:42:41;19.90;99.90
31733;DHT22;18312;51.486;7.144;2023-06-22T05:45:09;19.90;99.90
31733;DHT22;18312;51.486;7.144;2023-06-22T05:47:36;19.90;99.90
31733;DHT22;18312;51.486;7.144;2023-06-22T05:50:04;19.90;99.90
31733;DHT22;18312;51.486;7.144;2023-06-22T05:52:32;19.90;99.90
31733;DHT22;18312;51.486;7.144;2023-06-22T05:54:59;20.00;99.90
31733;DHT22;18312;51.486;7.144;2023-06-22T05:57:26;20.00;99.90
31733;DHT22;18312;51.486;7.144;2023-06-22T05:59:52;20.10;99.90
31733;DHT22;18312;51.486;7.144;2023-06-22T06:02:21;20.10;99.90
31733;DHT22;18312;51.486;7.144;2023-06-22T06:04:48;20.20;99.90
31733;DHT22;18312;51.486;7.144;2023-06-22T06:07:16;20.30;99.90
31733;DHT22;18312;51.486;7.144;2023-06-22T06:09:43;20.30;99.90
31733;DHT22;18312;51.486;7.144;2023-06-22T06:12:16;20.30;99.90
31733;DHT22;18312;51.486;7.144;2023-06-22T06:14:42;20.40;99.90
31733;DHT22;18312;51.486;7.144;2023-06-22T06:17:09;20.40;99.90
31733;DHT22;18312;51.486;7.144;2023-06-22T06:19:37;20.50;99.90
31733;DHT22;18312;51.486;7.144;2023-06-22T06:22:04;20.50;99.90
31733;DHT22;18312;51.486;7.144;2023-06-22T06:24:31;20.40;99.90
31733;DHT22;18312;51.486;7.144;2023-06-22T06:26:58;20.40;99.90
31733;DHT22;18312;51.486;7.144;2023-06-22T06:29:24;20.50;99.90
31733;DHT22;18312;51.486;7.144;2023-06-22T06:31:51;20.50;99.90
31733;DHT22;18312;51.486;7.144;2023-06-22T06:34:19;20.60;99.90
31733;DHT22;18312;51.486;7.144;2023-06-22T06:36:47;20.70;99.90
31733;DHT22;18312;51.486;7.144;2023-06-22T06:39:14;20.60;99.90
31733;DHT22;18312;51.486;7.144;2023-06-22T06:41:42;20.70;99.90
31733;DHT22;18312;51.486;7.144;2023-06-22T06:44:08;20.70;99.90
31733;DHT22;18312;51.486;7.144;2023-06-22T06:46:35;20.80;99.90
31733;DHT22;18312;51.486;7.144;2023-06-22T06:49:02;20.90;99.90
31733;DHT22;18312;51.486;7.144;2023-06-22T06:51:30;20.90;99.90
31733;DHT22;18312;51.486;7.144;2023-06-22T06:53:58;20.90;99.90
31733;DHT22;18312;51.486;7.144;2023-06-22T06:56:25;21.00;99.90
31733;DHT22;18312;51.486;7.144;2023-06-22T06:58:52;21.10;99.90
31733;DHT22;18312;51.486;7.144;2023-06-22T07:01:19;21.20;99.90
31733;DHT22;18312;51.486;7.144;2023-06-22T07:03:46;21.10;99.90
31733;DHT22;18312;51.486;7.144;2023-06-22T07:06:13;21.20;99.90
31733;DHT22;18312;51.486;7.144;2023-06-22T07:08:41;21.30;99.90
31733;DHT22;18312;51.486;7.144;2023-06-22T07:11:09;21.40;99.90
31733;DHT22;18312;51.486;7.144;2023-06-22T07:13:36;21.50;99.90
31733;DHT22;18312;51.486;7.144;2023-06-22T07:16:04;21.50;99.90
31733;DHT22;18312;51.486;7.144;2023-06-22T07:18:31;21.50;99.90
31733;DHT22;18312;51.486;7.144;2023-06-22T07:20:57;21.60;99.90
31733;DHT22;18312;51.486;7.144;2023-06-22T07:23:24;21.60;99.90
31733;DHT22;18312;51.486;7.144;2023-06-22T07:25:51;21.60;99.90
31733;DHT22;18312;51.486;7.144;2023-06-22T07:28:19;21.70;99.90
31733;DHT22;18312;51.486;7.144;2023-06-22T07:30:46;21.90;99.90
31733;DHT22;18312;51.486;7.144;2023-06-22T07:33:13;21.90;99.90
31733;DHT22;18312;51.486;7.144;2023-06-22T07:35:39;21.90;99.90
31733;DHT22;18312;51.486;7.144;2023-06-22T07:38:06;22.00;99.90
31733;DHT22;18312;51.486;7.144;2023-06-22T07:40:34;22.10;99.90
31733;DHT22;18312;51.486;7.144;2023-06-22T07:43:01;22.20;99.90
31733;DHT22;18312;51.486;7.144;2023-06-22T07:45:30;22.40;99.90
31733;DHT22;18312;51.486;7.144;2023-06-22T07:47:58;22.60;99.90
31733;DHT22;18312;51.486;7.144;2023-06-22T07:50:25;22.50;99.90
31733;DHT22;18312;51.486;7.144;2023-06-22T07:52:52;22.20;99.90
31733;DHT22;18312;51.486;7.144;2023-06-22T07:55:19;22.20;99.90
31733;DHT22;18312;51.486;7.144;2023-06-22T07:57:48;22.20;99.90
31733;DHT22;18312;51.486;7.144;2023-06-22T08:00:17;22.10;99.90
31733;DHT22;18312;51.486;7.144;2023-06-22T08:02:46;22.20;99.90
31733;DHT22;18312;51.486;7.144;2023-06-22T08:05:14;22.20;99.90
31733;DHT22;18312;51.486;7.144;2023-06-22T08:07:41;22.40;99.90
31733;DHT22;18312;51.486;7.144;2023-06-22T08:10:11;22.30;99.90
31733;DHT22;18312;51.486;7.144;2023-06-22T08:12:37;22.20;99.90
31733;DHT22;18312;51.486;7.144;2023-06-22T08:15:06;22.20;99.90
31733;DHT22;18312;51.486;7.144;2023-06-22T08:17:33;22.10;99.90
31733;DHT22;18312;51.486;7.144;2023-06-22T08:20:01;22.00;99.90
31733;DHT22;18312;51.486;7.144;2023-06-22T08:22:31;21.90;99.90
31733;DHT22;18312;51.486;7.144;2023-06-22T08:24:58;22.00;99.90
31733;DHT22;18312;51.486;7.144;2023-06-22T08:27:25;22.00;99.90
31733;DHT22;18312;51.486;7.144;2023-06-22T08:29:53;22.10;99.90
31733;DHT22;18312;51.486;7.144;2023-06-22T08:32:23;22.20;99.90
31733;DHT22;18312;51.486;7.144;2023-06-22T08:34:50;22.20;99.90
31733;DHT22;18312;51.486;7.144;2023-06-22T08:37:18;22.20;99.90
31733;DHT22;18312;51.486;7.144;2023-06-22T08:39:45;22.30;99.90
31733;DHT22;18312;51.486;7.144;2023-06-22T08:42:12;22.50;99.90
31733;DHT22;18312;51.486;7.144;2023-06-22T08:44:39;22.50;99.90
31733;DHT22;18312;51.486;7.144;2023-06-22T08:47:06;22.40;99.90
31733;DHT22;18312;51.486;7.144;2023-06-22T08:49:33;22.20;99.90
31733;DHT22;18312;51.486;7.144;2023-06-22T08:51:59;22.20;99.90
31733;DHT22;18312;51.486;7.144;2023-06-22T08:54:27;22.10;99.90
31733;DHT22;18312;51.486;7.144;2023-06-22T08:56:54;22.10;99.90
31733;DHT22;18312;51.486;7.144;2023-06-22T08:59:21;22.20;99.90
31733;DHT22;18312;51.486;7.144;2023-06-22T09:01:47;22.30;99.90
31733;DHT22;18312;51.486;7.144;2023-06-22T09:04:15;22.30;99.90
31733;DHT22;18312;51.486;7.144;2023-06-22T09:06:41;22.40;99.90
31733;DHT22;18312;51.486;7.144;2023-06-22T09:09:10;22.40;99.90
31733;DHT22;18312;51.486;7.144;2023-06-22T09:11:39;22.50;99.90
31733;DHT22;18312;51.486;7.144;2023-06-22T09:14:06;22.40;99.90
31733;DHT22;18312;51.486;7.144;2023-06-22T09:16:33;22.50;99.90
31733;DHT22;18312;51.486;7.144;2023-06-22T09:19:00;22.60;99.90
31733;DHT22;18312;51.486;7.144;2023-06-22T09:21:27;22.70;99.90
31733;DHT22;18312;51.486;7.144;2023-06-22T09:23:54;22.80;99.90
31733;DHT22;18312;51.486;7.144;2023-06-22T09:26:21;23.00;99.90
31733;DHT22;18312;51.486;7.144;2023-06-22T09:28:49;23.10;99.90
31733;DHT22;18312;51.486;7.144;2023-06-22T09:31:16;23.00;99.90
31733;DHT22;18312;51.486;7.144;2023-06-22T09:33:43;23.10;99.90
31733;DHT22;18312;51.486;7.144;2023-06-22T09:36:09;23.30;99.90
31733;DHT22;18312;51.486;7.144;2023-06-22T09:38:36;23.60;99.90
31733;DHT22;18312;51.486;7.144;2023-06-22T09:41:04;23.90;99.90
31733;DHT22;18312;51.486;7.144;2023-06-22T09:43:32;24.00;99.90
31733;DHT22;18312;51.486;7.144;2023-06-22T09:46:01;24.30;99.90
31733;DHT22;18312;51.486;7.144;2023-06-22T09:48:28;24.60;99.90
31733;DHT22;18312;51.486;7.144;2023-06-22T09:50:56;24.80;99.90
31733;DHT22;18312;51.486;7.144;2023-06-22T09:53:22;24.90;99.90
31733;DHT22;18312;51.486;7.144;2023-06-22T09:55:49;24.80;99.90
31733;DHT22;18312;51.486;7.144;2023-06-22T09:58:16;24.80;99.90
31733;DHT22;18312;51.486;7.144;2023-06-22T10:00:42;24.60;99.90
31733;DHT22;18312;51.486;7.144;2023-06-22T10:03:11;24.60;99.90
31733;DHT22;18312;51.486;7.144;2023-06-22T10:05:37;24.90;99.90
31733;DHT22;18312;51.486;7.144;2023-06-22T10:08:04;25.10;99.90
31733;DHT22;18312;51.486;7.144;2023-06-22T10:10:33;25.70;99.90
31733;DHT22;18312;51.486;7.144;2023-06-22T10:13:07;25.80;99.90
31733;DHT22;18312;51.486;7.144;2023-06-22T10:15:35;25.70;99.90
31733;DHT22;18312;51.486;7.144;2023-06-22T10:18:02;26.00;99.90
31733;DHT22;18312;51.486;7.144;2023-06-22T10:20:30;26.40;99.90
31733;DHT22;18312;51.486;7.144;2023-06-22T10:22:57;26.00;99.90
31733;DHT22;18312;51.486;7.144;2023-06-22T10:25:24;26.40;99.90
31733;DHT22;18312;51.486;7.144;2023-06-22T10:27:50;27.20;99.40
31733;DHT22;18312;51.486;7.144;2023-06-22T10:30:17;27.10;98.60
31733;DHT22;18312;51.486;7.144;2023-06-22T10:32:44;27.20;98.40
31733;DHT22;18312;51.486;7.144;2023-06-22T10:35:11;27.10;98.20
31733;DHT22;18312;51.486;7.144;2023-06-22T10:37:40;26.60;98.40
31733;DHT22;18312;51.486;7.144;2023-06-22T10:40:09;26.80;98.30
31733;DHT22;18312;51.486;7.144;2023-06-22T10:42:36;27.30;97.90
31733;DHT22;18312;51.486;7.144;2023-06-22T10:45:03;27.30;96.90
31733;DHT22;18312;51.486;7.144;2023-06-22T10:47:30;27.50;97.00
31733;DHT22;18312;51.486;7.144;2023-06-22T10:49:56;27.70;96.70
31733;DHT22;18312;51.486;7.144;2023-06-22T10:52:23;27.30;97.10
31733;DHT22;18312;51.486;7.144;2023-06-22T10:54:51;27.00;97.30
31733;DHT22;18312;51.486;7.144;2023-06-22T10:57:18;27.10;96.90
31733;DHT22;18312;51.486;7.144;2023-06-22T10:59:45;27.20;96.90
31733;DHT22;18312;51.486;7.144;2023-06-22T11:02:12;26.90;96.90
31733;DHT22;18312;51.486;7.144;2023-06-22T11:04:38;26.90;97.00
31733;DHT22;18312;51.486;7.144;2023-06-22T11:07:06;26.80;97.10
31733;DHT22;18312;51.486;7.144;2023-06-22T11:09:32;26.70;97.30
31733;DHT22;18312;51.486;7.144;2023-06-22T11:12:00;26.60;97.20
31733;DHT22;18312;51.486;7.144;2023-06-22T11:14:27;26.50;97.10
31733;DHT22;18312;51.486;7.144;2023-06-22T11:16:54;26.50;97.50
31733;DHT22;18312;51.486;7.144;2023-06-22T11:19:21;26.50;97.70
31733;DHT22;18312;51.486;7.144;2023-06-22T11:21:48;26.40;98.00
31733;DHT22;18312;51.486;7.144;2023-06-22T11:24:15;26.40;98.30
31733;DHT22;18312;51.486;7.144;2023-06-22T11:26:42;26.30;98.90
31733;DHT22;18312;51.486;7.144;2023-06-22T11:29:11;26.20;99.90
31733;DHT22;18312;51.486;7.144;2023-06-22T11:31:37;26.00;99.90
31733;DHT22;18312;51.486;7.144;2023-06-22T11:34:04;25.70;99.90
31733;DHT22;18312;51.486;7.144;2023-06-22T11:36:31;25.60;99.90
31733;DHT22;18312;51.486;7.144;2023-06-22T11:39:00;25.40;99.90
31733;DHT22;18312;51.486;7.144;2023-06-22T11:41:27;25.20;99.90
31733;DHT22;18312;51.486;7.144;2023-06-22T11:43:54;25.00;99.90
31733;DHT22;18312;51.486;7.144;2023-06-22T11:46:22;24.70;99.90
31733;DHT22;18312;51.486;7.144;2023-06-22T11:48:49;24.50;99.90
31733;DHT22;18312;51.486;7.144;2023-06-22T11:51:16;24.30;99.90
31733;DHT22;18312;51.486;7.144;2023-06-22T11:53:42;24.00;99.90
31733;DHT22;18312;51.486;7.144;2023-06-22T11:56:09;23.60;99.90
31733;DHT22;18312;51.486;7.144;2023-06-22T11:58:36;23.50;99.90
31733;DHT22;18312;51.486;7.144;2023-06-22T12:01:03;23.40;99.90
31733;DHT22;18312;51.486;7.144;2023-06-22T12:03:31;23.20;99.90
31733;DHT22;18312;51.486;7.144;2023-06-22T12:05:59;23.00;99.90
31733;DHT22;18312;51.486;7.144;2023-06-22T12:08:26;22.80;99.90
31733;DHT22;18312;51.486;7.144;2023-06-22T12:10:53;22.30;99.90
31733;DHT22;18312;51.486;7.144;2023-06-22T12:13:20;22.00;99.90
31733;DHT22;18312;51.486;7.144;2023-06-22T12:15:47;21.90;99.90
31733;DHT22;18312;51.486;7.144;2023-06-22T12:18:14;21.90;99.90
31733;DHT22;18312;51.486;7.144;2023-06-22T12:20:42;22.00;99.90
31733;DHT22;18312;51.486;7.144;2023-06-22T12:23:10;22.10;99.90
31733;DHT22;18312;51.486;7.144;2023-06-22T12:25:37;22.30;99.90
31733;DHT22;18312;51.486;7.144;2023-06-22T12:28:04;22.30;99.90
31733;DHT22;18312;51.486;7.144;2023-06-22T12:30:32;22.10;99.90
31733;DHT22;18312;51.486;7.144;2023-06-22T12:32:59;22.00;99.90
31733;DHT22;18312;51.486;7.144;2023-06-22T12:35:25;22.00;99.90
31733;DHT22;18312;51.486;7.144;2023-06-22T12:37:54;22.00;99.90
31733;DHT22;18312;51.486;7.144;2023-06-22T12:40:20;22.00;99.90
31733;DHT22;18312;51.486;7.144;2023-06-22T12:42:47;21.80;99.90
31733;DHT22;18312;51.486;7.144;2023-06-22T12:45:15;21.80;99.90
31733;DHT22;18312;51.486;7.144;2023-06-22T12:47:42;21.80;99.90
31733;DHT22;18312;51.486;7.144;2023-06-22T12:50:09;21.80;99.90
31733;DHT22;18312;51.486;7.144;2023-06-22T12:52:37;21.80;99.90
31733;DHT22;18312;51.486;7.144;2023-06-22T12:55:08;21.80;99.90
31733;DHT22;18312;51.486;7.144;2023-06-22T12:57:35;21.80;99.90
31733;DHT22;18312;51.486;7.144;2023-06-22T13:00:02;21.70;99.90
31733;DHT22;18312;51.486;7.144;2023-06-22T13:02:30;21.70;99.90
31733;DHT22;18312;51.486;7.144;2023-06-22T13:04:57;21.70;99.90
31733;DHT22;18312;51.486;7.144;2023-06-22T13:07:24;21.60;99.90
31733;DHT22;18312;51.486;7.144;2023-06-22T13:09:51;21.70;99.90
31733;DHT22;18312;51.486;7.144;2023-06-22T13:12:19;21.70;99.90
31733;DHT22;18312;51.486;7.144;2023-06-22T13:14:46;21.70;99.90
31733;DHT22;18312;51.486;7.144;2023-06-22T13:17:13;21.80;99.90
31733;DHT22;18312;51.486;7.144;2023-06-22T13:19:40;21.80;99.90
31733;DHT22;18312;51.486;7.144;2023-06-22T13:22:26;22.00;99.90
31733;DHT22;18312;51.486;7.144;2023-06-22T13:24:53;22.20;99.90
31733;DHT22;18312;51.486;7.144;2023-06-22T13:27:21;22.30;99.90
31733;DHT22;18312;51.486;7.144;2023-06-22T13:29:48;22.50;99.90
31733;DHT22;18312;51.486;7.144;2023-06-22T13:32:14;22.50;99.90
31733;DHT22;18312;51.486;7.144;2023-06-22T13:34:41;22.50;99.90
31733;DHT22;18312;51.486;7.144;2023-06-22T13:37:08;22.50;99.90
31733;DHT22;18312;51.486;7.144;2023-06-22T13:39:35;22.20;99.90
31733;DHT22;18312;51.486;7.144;2023-06-22T13:42:02;22.20;99.90
31733;DHT22;18312;51.486;7.144;2023-06-22T13:44:30;22.10;99.90
31733;DHT22;18312;51.486;7.144;2023-06-22T13:46:57;22.30;99.90
31733;DHT22;18312;51.486;7.144;2023-06-22T13:49:24;22.30;99.90
31733;DHT22;18312;51.486;7.144;2023-06-22T13:51:51;22.30;99.90
31733;DHT22;18312;51.486;7.144;2023-06-22T13:54:18;22.40;99.90
31733;DHT22;18312;51.486;7.144;2023-06-22T13:56:44;22.20;99.90
31733;DHT22;18312;51.486;7.144;2023-06-22T13:59:11;22.10;99.90
31733;DHT22;18312;51.486;7.144;2023-06-22T14:01:39;22.40;99.90
31733;DHT22;18312;51.486;7.144;2023-06-22T14:04:07;22.50;99.90
31733;DHT22;18312;51.486;7.144;2023-06-22T14:06:33;22.60;99.90
31733;DHT22;18312;51.486;7.144;2023-06-22T14:09:00;22.90;99.90
31733;DHT22;18312;51.486;7.144;2023-06-22T14:11:28;23.00;99.90
31733;DHT22;18312;51.486;7.144;2023-06-22T14:13:55;23.00;99.90
31733;DHT22;18312;51.486;7.144;2023-06-22T14:16:21;22.80;99.90
31733;DHT22;18312;51.486;7.144;2023-06-22T14:18:49;22.90;99.90
31733;DHT22;18312;51.486;7.144;2023-06-22T14:21:16;22.80;99.90
31733;DHT22;18312;51.486;7.144;2023-06-22T14:23:44;22.90;99.90
31733;DHT22;18312;51.486;7.144;2023-06-22T14:26:14;22.90;99.90
31733;DHT22;18312;51.486;7.144;2023-06-22T14:28:45;22.90;99.90
31733;DHT22;18312;51.486;7.144;2023-06-22T14:31:14;23.00;99.90
31733;DHT22;18312;51.486;7.144;2023-06-22T14:33:43;23.00;99.90
31733;DHT22;18312;51.486;7.144;2023-06-22T14:36:11;22.70;99.90
31733;DHT22;18312;51.486;7.144;2023-06-22T14:38:38;22.60;99.90
31733;DHT22;18312;51.486;7.144;2023-06-22T14:41:05;22.70;99.90
31733;DHT22;18312;51.486;7.144;2023-06-22T14:43:32;22.90;99.90
31733;DHT22;18312;51.486;7.144;2023-06-22T14:45:58;22.80;99.90
31733;DHT22;18312;51.486;7.144;2023-06-22T14:48:26;22.80;99.90
31733;DHT22;18312;51.486;7.144;2023-06-22T14:50:53;22.60;99.90
31733;DHT22;18312;51.486;7.144;2023-06-22T14:53:21;22.60;99.90
31733;DHT22;18312;51.486;7.144;2023-06-22T14:55:48;22.60;99.90
31733;DHT22;18312;51.486;7.144;2023-06-22T14:58:15;22.50;99.90
31733;DHT22;18312;51.486;7.144;2023-06-22T15:00:42;22.60;99.90
31733;DHT22;18312;51.486;7.144;2023-06-22T15:03:09;22.50;99.90
31733;DHT22;18312;51.486;7.144;2023-06-22T15:05:47;22.40;99.90
31733;DHT22;18312;51.486;7.144;2023-06-22T15:08:14;22.10;99.90
31733;DHT22;18312;51.486;7.144;2023-06-22T15:10:43;21.90;99.90
31733;DHT22;18312;51.486;7.144;2023-06-22T15:13:09;21.90;99.90
31733;DHT22;18312;51.486;7.144;2023-06-22T15:15:36;21.70;99.90
31733;DHT22;18312;51.486;7.144;2023-06-22T15:18:03;21.60;99.90
31733;DHT22;18312;51.486;7.144;2023-06-22T15:20:30;21.60;99.90
31733;DHT22;18312;51.486;7.144;2023-06-22T15:22:57;21.60;99.90
31733;DHT22;18312;51.486;7.144;2023-06-22T15:25:24;21.50;99.90
31733;DHT22;18312;51.486;7.144;2023-06-22T15:27:52;21.50;99.90
31733;DHT22;18312;51.486;7.144;2023-06-22T15:30:19;21.50;99.90
31733;DHT22;18312;51.486;7.144;2023-06-22T15:32:46;21.50;99.90
31733;DHT22;18312;51.486;7.144;2023-06-22T15:35:14;21.50;99.90